Terminal Aerodrome Forecast
Issued by NWS Detroit/Pontiac, MI

Home | Current Version | Previous Version | Text Only | Print | Product List | Glossary On
Versions: 1 2 3 4 5 6 7 8 9 10 11 12 13 14 15 16 17 18 19 20 21 22 23 24 25 26
000
FTUS43 KDTX 292019 AAA
TAFDTW
TAF AMD
KDTW 292019Z 2920/3024 14010KT P6SM SCT060 BKN250
     FM300600 20010KT P6SM BKN060
     FM301400 23008KT 5SM -RA OVC025
     FM301800 24012KT P6SM -SHRA OVC050 PROB30 3018/3021 3SM TSRA
      OVC030CB=

USA.gov is the U.S. government's official web portal to all federal, state and local government web resources and services.